| time (UTC) | temp C | wind direction | speed KPH | gust KPH | rain 1hr cm | rain 24hr cm | rain mn cm | humidity % | barometer mb |
| 20260507120016 | 11 | 328 | 4.8 | 11.3 | 0.00 | 0.33 | 0.00 | 65 | 1010.8 |
| 20260507114518 | 11 | 331 | 4.8 | 8.0 | 0.00 | 0.36 | 0.00 | 64 | 1010.9 |
| 20260507113036 | 11 | 311 | 3.2 | 6.4 | 0.00 | 0.41 | 0.00 | 68 | 1010.9 |
| 20260507111516 | 11 | 287 | 3.2 | 6.4 | 0.00 | 0.41 | 0.00 | 63 | 1010.8 |
| 20260507110022 | 11 | 298 | 3.2 | 8.0 | 0.00 | 0.41 | 0.00 | 61 | 1010.6 |
| 20260507104522 | 11 | 291 | 6.4 | 12.9 | 0.00 | 0.41 | 0.00 | 61 | 1010.3 |
| 20260507103022 | 11 | 319 | 6.4 | 14.5 | 0.00 | 0.41 | 0.00 | 62 | 1010.2 |
| 20260507101519 | 11 | 318 | 6.4 | 12.9 | 0.00 | 0.41 | 0.00 | 63 | 1010.0 |
| 20260507100020 | 11 | 304 | 8.0 | 12.9 | 0.00 | 0.41 | 0.00 | 64 | 1009.8 |
| 20260507094521 | 12 | 315 | 4.8 | 11.3 | 0.00 | 0.41 | 0.00 | 65 | 1009.7 |
| 20260507093022 | 12 | 321 | 4.8 | 9.7 | 0.00 | 0.41 | 0.00 | 66 | 1009.8 |
| 20260507091524 | 12 | 294 | 4.8 | 12.9 | 0.00 | 0.41 | 0.00 | 71 | 1009.7 |
| 20260507090024 | 12 | 321 | 1.6 | 12.9 | 0.00 | 0.41 | 0.00 | 77 | 1009.6 |
| 20260507084529 | 12 | 328 | 6.4 | 19.3 | 0.00 | 0.41 | 0.00 | 75 | 1009.5 |
| 20260507083020 | 12 | 346 | 8.0 | 16.1 | 0.00 | 0.41 | 0.00 | 75 | 1009.6 |
| 20260507081533 | 12 | 360 | 8.0 | 19.3 | 0.00 | 0.41 | 0.00 | 79 | 1009.3 |
| 20260507080024 | 12 | 315 | 4.8 | 12.9 | 0.00 | 0.41 | 0.00 | 86 | 1009.0 |
| 20260507074522 | 12 | 24 | 3.2 | 6.4 | 0.00 | 0.41 | 0.00 | 87 | 1008.9 |
| 20260507073021 | 12 | 66 | 0.0 | 3.2 | 0.00 | 0.41 | 0.00 | 86 | 1009.0 |
| 20260507071524 | 12 | 38 | 1.6 | 4.8 | 0.00 | 0.41 | 0.00 | 84 | 1009.1 |
| 20260507070023 | 12 | 5 | 0.0 | 3.2 | 0.00 | 0.41 | 0.00 | 84 | 1009.4 |
| 20260507064522 | 13 | 29 | 0.0 | 4.8 | 0.00 | 0.41 | 0.00 | 80 | 1009.6 |
| 20260507063024 | 13 | 11 | 3.2 | 12.9 | 0.00 | 0.41 | 0.00 | 81 | 1009.4 |
| 20260507061525 | 13 | 333 | 0.0 | 4.8 | 0.00 | 0.41 | 0.00 | 83 | 1009.4 |
| 20260507060022 | 13 | 351 | 1.6 | 6.4 | 0.00 | 0.41 | 0.00 | 82 | 1009.3 |
| 20260507054524 | 13 | 327 | 3.2 | 6.4 | 0.00 | 0.41 | 0.00 | 81 | 1009.2 |
| 20260507053024 | 13 | 349 | 3.2 | 9.7 | 0.00 | 0.41 | 0.00 | 80 | 1009.2 |
| 20260507051510 | 13 | 24 | 4.8 | 16.1 | 0.00 | 0.41 | 0.00 | 80 | 1009.3 |
| 20260507050014 | 13 | 348 | 8.0 | 17.7 | 0.00 | 0.41 | 0.00 | 82 | 1009.1 |
| 20260507044520 | 13 | 15 | 3.2 | 6.4 | 0.00 | 0.41 | 0.00 | 87 | 1009.1 |
| 20260507043027 | 13 | 23 | 1.6 | 4.8 | 0.00 | 0.41 | 0.00 | 87 | 1009.2 |
| 20260507041524 | 14 | 344 | 6.4 | 14.5 | 0.00 | 0.41 | 0.00 | 86 | 1009.2 |
| 20260507040014 | 14 | 316 | 6.4 | 14.5 | 0.00 | 0.41 | 0.00 | 85 | 1009.0 |
| 20260507034522 | 15 | 330 | 6.4 | 17.7 | 0.00 | 0.41 | 0.41 | 84 | 1008.9 |
| 20260507033022 | 15 | 5 | 9.7 | 22.5 | 0.00 | 0.41 | 0.41 | 83 | 1008.7 |
| 20260507031523 | 15 | 5 | 16.1 | 22.5 | 0.00 | 0.41 | 0.41 | 82 | 1008.9 |
| 20260507030026 | 15 | 350 | 9.7 | 19.3 | 0.00 | 0.41 | 0.41 | 82 | 1008.9 |
| 20260507024519 | 15 | 315 | 4.8 | 14.5 | 0.00 | 0.41 | 0.41 | 81 | 1008.5 |
| 20260507023017 | 16 | 304 | 6.4 | 19.3 | 0.00 | 0.41 | 0.41 | 81 | 1008.4 |
| 20260507021522 | 16 | 323 | 14.5 | 24.1 | 0.00 | 0.41 | 0.41 | 81 | 1008.5 |
| 20260507020042 | 16 | 321 | 17.7 | 29.0 | 0.00 | 0.41 | 0.41 | 81 | 1008.1 |
| 20260507014525 | 16 | 338 | 16.1 | 24.1 | 0.00 | 0.41 | 0.41 | 81 | 1008.1 |
| 20260507013021 | 16 | 11 | 4.8 | 9.7 | 0.00 | 0.41 | 0.41 | 81 | 1008.2 |
| 20260507011534 | 16 | 30 | 9.7 | 17.7 | 0.00 | 0.41 | 0.41 | 80 | 1008.1 |
| 20260507010024 | 17 | 291 | 3.2 | 22.5 | 0.00 | 0.41 | 0.41 | 81 | 1008.4 |
| 20260507004523 | 17 | 346 | 11.3 | 22.5 | 0.00 | 0.41 | 0.41 | 81 | 1008.2 |
| 20260507003016 | 17 | 350 | 9.7 | 19.3 | 0.00 | 0.41 | 0.41 | 83 | 1007.9 |
| 20260507001545 | 17 | 317 | 12.9 | 19.3 | 0.00 | 0.41 | 0.41 | 84 | 1007.6 |
| 20260507000024 | 17 | 265 | 12.9 | 22.5 | 0.00 | 0.41 | 0.41 | 85 | 1007.2 |
| 20260506234523 | 18 | 332 | 11.3 | 22.5 | 0.00 | 0.41 | 0.41 | 86 | 1006.6 |
| 20260506233012 | 18 | 302 | 14.5 | 20.9 | 0.00 | 0.41 | 0.41 | 88 | 1006.4 |
| 20260506231518 | 18 | 246 | 6.4 | 14.5 | 0.00 | 0.41 | 0.41 | 91 | 1006.4 |
| 20260506230021 | 18 | 263 | 3.2 | 6.4 | 0.00 | 0.41 | 0.41 | 92 | 1006.3 |
| 20260506224508 | 18 | 290 | 0.0 | 4.8 | 0.00 | 0.41 | 0.41 | 91 | 1006.2 |
| 20260506223006 | 18 | 290 | 1.6 | 4.8 | 0.00 | 0.41 | 0.41 | 91 | 1006.2 |
| 20260506221512 | 18 | 279 | 3.2 | 6.4 | 0.00 | 0.41 | 0.41 | 91 | 1006.3 |
| 20260506220018 | 18 | 273 | 1.6 | 4.8 | 0.00 | 0.41 | 0.41 | 91 | 1006.1 |
| 20260506214502 | 18 | 257 | 0.0 | 6.4 | 0.00 | 0.41 | 0.41 | 91 | 1006.0 |
| 20260506213005 | 18 | 281 | 1.6 | 4.8 | 0.00 | 0.41 | 0.41 | 90 | 1005.9 |
| 20260506211507 | 18 | 221 | 3.2 | 8.0 | 0.00 | 0.41 | 0.41 | 90 | 1005.6 |
| 20260506210027 | 18 | 232 | 3.2 | 11.3 | 0.00 | 0.41 | 0.41 | 90 | 1005.6 |
| 20260506204519 | 18 | 231 | 4.8 | 9.7 | 0.00 | 0.41 | 0.41 | 90 | 1005.3 |
| 20260506203008 | 18 | 201 | 1.6 | 9.7 | 0.00 | 0.41 | 0.41 | 90 | 1005.4 |
| 20260506201510 | 18 | 169 | 4.8 | 12.9 | 0.00 | 0.41 | 0.41 | 89 | 1005.5 |
| 20260506200012 | 18 | 248 | 6.4 | 16.1 | 0.00 | 0.41 | 0.41 | 90 | 1005.5 |
| 20260506194517 | 18 | 215 | 6.4 | 14.5 | 0.00 | 0.41 | 0.41 | 90 | 1005.5 |
| 20260506193032 | 18 | 182 | 8.0 | 14.5 | 0.00 | 0.41 | 0.41 | 91 | 1005.7 |
| 20260506191510 | 18 | 247 | 8.0 | 12.9 | 0.00 | 0.41 | 0.41 | 92 | 1005.6 |
| 20260506190011 | 18 | 214 | 6.4 | 14.5 | 0.00 | 0.41 | 0.41 | 91 | 1005.8 |
| 20260506184515 | 18 | 211 | 9.7 | 20.9 | 0.00 | 0.41 | 0.41 | 90 | 1005.8 |
| 20260506183019 | 18 | 219 | 12.9 | 25.7 | 0.00 | 0.41 | 0.41 | 89 | 1005.7 |
| 20260506181535 | 18 | 199 | 11.3 | 22.5 | 0.00 | 0.41 | 0.41 | 89 | 1005.8 |
| 20260506180010 | 18 | 213 | 12.9 | 25.7 | 0.00 | 0.41 | 0.41 | 89 | 1005.7 |
| 20260506174510 | 17 | 225 | 8.0 | 22.5 | 0.00 | 0.41 | 0.41 | 91 | 1005.8 |
| 20260506173016 | 17 | 203 | 8.0 | 29.0 | 0.00 | 0.41 | 0.41 | 91 | 1005.9 |
| 20260506171520 | 17 | 217 | 9.7 | 25.7 | 0.00 | 0.41 | 0.41 | 91 | 1005.9 |
| 20260506170027 | 17 | 209 | 11.3 | 32.2 | 0.00 | 0.41 | 0.41 | 91 | 1005.9 |
| 20260506164532 | 17 | 213 | 9.7 | 29.0 | 0.00 | 0.41 | 0.41 | 92 | 1005.9 |
| 20260506163014 | 16 | 225 | 12.9 | 32.2 | 0.00 | 0.41 | 0.41 | 91 | 1006.0 |
| 20260506161522 | 16 | 244 | 16.1 | 29.0 | 0.00 | 0.41 | 0.41 | 92 | 1005.8 |
| 20260506160021 | 16 | 179 | 16.1 | 29.0 | 0.00 | 0.41 | 0.41 | 92 | 1006.2 |
| 20260506154528 | 16 | 205 | 9.7 | 27.4 | 0.00 | 0.41 | 0.41 | 92 | 1006.4 |
| 20260506153014 | 16 | 192 | 9.7 | 27.4 | 0.03 | 0.41 | 0.41 | 93 | 1006.1 |
| 20260506151517 | 16 | 210 | 12.9 | 35.4 | 0.05 | 0.41 | 0.41 | 93 | 1006.2 |
| 20260506150021 | 16 | 226 | 9.7 | 22.5 | 0.08 | 0.41 | 0.41 | 93 | 1006.0 |
| 20260506144527 | 16 | 236 | 9.7 | 25.7 | 0.08 | 0.41 | 0.41 | 93 | 1006.4 |
| 20260506141525 | 16 | 209 | 12.9 | 27.4 | 0.08 | 0.36 | 0.36 | 93 | 1006.8 |
| 20260506133025 | 16 | 194 | 8.0 | 25.7 | 0.13 | 0.30 | 0.30 | 93 | 1006.5 |
| 20260506131524 | 15 | 148 | 8.0 | 19.3 | 0.15 | 0.28 | 0.28 | 93 | 1006.6 |
| 20260506124518 | 16 | 147 | 8.0 | 19.3 | 0.15 | 0.20 | 0.20 | 92 | 1006.6 |
| 20260506123022 | 16 | 215 | 6.4 | 22.5 | 0.18 | 0.18 | 0.18 | 92 | 1006.5 |
| 20260506121524 | 16 | 167 | 6.4 | 19.3 | 0.13 | 0.13 | 0.13 | 91 | 1006.6 |